createdAt,value
2018-07-01T00:00:51.122Z,21.19
2018-07-01T00:03:19.643Z,21.16
2018-07-01T00:05:48.142Z,21.12
2018-07-01T00:08:16.697Z,21.13
2018-07-01T00:10:45.315Z,21.07
2018-07-01T00:13:13.863Z,21.02
2018-07-01T00:15:42.310Z,20.95
2018-07-01T00:18:11.051Z,20.81
2018-07-01T00:20:39.528Z,20.76
2018-07-01T00:23:08.145Z,20.70
2018-07-01T00:25:36.710Z,20.67
2018-07-01T00:28:05.217Z,20.59
2018-07-01T00:30:33.922Z,20.56
2018-07-01T00:33:03.452Z,20.50
2018-07-01T00:35:31.942Z,20.45
2018-07-01T00:38:00.623Z,20.44
2018-07-01T00:40:29.108Z,20.42
2018-07-01T00:42:57.658Z,20.36
2018-07-01T00:45:26.255Z,20.32
2018-07-01T00:47:54.842Z,20.31
2018-07-01T00:50:23.711Z,20.25
2018-07-01T00:52:52.291Z,20.21
2018-07-01T00:55:20.830Z,20.14
2018-07-01T00:57:49.319Z,20.08
2018-07-01T01:00:21.928Z,20.07
2018-07-01T01:02:50.514Z,20.02
2018-07-01T01:05:19.063Z,19.95
2018-07-01T01:07:47.580Z,19.88
2018-07-01T01:10:16.168Z,19.84
2018-07-01T01:12:44.738Z,19.79
2018-07-01T01:15:13.247Z,19.77
2018-07-01T01:17:41.943Z,19.71
2018-07-01T01:20:10.514Z,19.64
2018-07-01T01:22:39.105Z,19.59
2018-07-01T01:25:07.756Z,19.52
2018-07-01T01:27:36.595Z,19.48
2018-07-01T01:30:05.359Z,19.45
2018-07-01T01:32:33.995Z,19.42
2018-07-01T01:35:02.541Z,19.38
2018-07-01T01:37:31.139Z,19.42
2018-07-01T01:39:59.940Z,19.38
2018-07-01T01:42:35.339Z,19.33
2018-07-01T01:45:13.214Z,19.31
2018-07-01T01:48:44.976Z,19.27
2018-07-01T01:51:17.565Z,19.25
2018-07-01T01:53:51.460Z,19.25
2018-07-01T02:03:04.238Z,19.01
2018-07-01T02:05:37.998Z,18.92
2018-07-01T02:08:09.163Z,18.86
2018-07-01T02:10:37.691Z,18.80
2018-07-01T02:13:06.571Z,18.74
2018-07-01T02:15:40.452Z,18.80
2018-07-01T02:18:09.145Z,18.79
2018-07-01T02:20:39.536Z,18.79
2018-07-01T02:23:16.423Z,18.78
2018-07-01T02:25:45.300Z,18.75
2018-07-01T02:28:13.899Z,18.72
2018-07-01T02:30:42.376Z,18.67
2018-07-01T02:33:10.895Z,18.67
2018-07-01T02:35:39.379Z,18.62
2018-07-01T02:38:07.888Z,18.61
2018-07-01T02:40:36.441Z,18.59
2018-07-01T02:43:05.308Z,18.63
2018-07-01T02:45:33.911Z,18.61
2018-07-01T02:48:02.584Z,18.54
2018-07-01T02:50:31.327Z,18.49
2018-07-01T02:52:59.911Z,18.44
2018-07-01T02:55:28.467Z,18.35
2018-07-01T02:57:56.899Z,18.31
2018-07-01T03:00:25.477Z,18.26
2018-07-01T03:02:53.976Z,18.24
2018-07-01T03:05:22.664Z,18.22
2018-07-01T03:07:55.215Z,18.21
2018-07-01T03:10:23.846Z,18.23
2018-07-01T03:12:52.364Z,18.20
2018-07-01T03:15:20.922Z,18.18
2018-07-01T03:17:50.423Z,18.17
2018-07-01T03:20:19.026Z,18.13
2018-07-01T03:22:47.724Z,18.12
2018-07-01T03:25:16.295Z,18.11
2018-07-01T03:27:44.842Z,17.97
2018-07-01T03:30:13.336Z,17.83
2018-07-01T03:32:41.811Z,17.80
2018-07-01T03:35:10.397Z,17.83
2018-07-01T03:37:38.851Z,17.86
2018-07-01T03:40:07.617Z,17.80
2018-07-01T03:42:36.116Z,17.79
2018-07-01T03:45:04.775Z,17.81
2018-07-01T03:47:33.300Z,17.80
2018-07-01T03:50:01.858Z,17.79
2018-07-01T03:52:30.431Z,17.77
2018-07-01T03:54:58.950Z,17.77
2018-07-01T03:57:27.479Z,17.74
2018-07-01T03:59:56.038Z,17.73
2018-07-01T04:02:24.593Z,17.73
2018-07-01T04:04:53.097Z,17.79
2018-07-01T04:07:21.549Z,17.82
2018-07-01T04:09:50.088Z,17.84
2018-07-01T04:12:18.625Z,17.86
2018-07-01T04:14:47.100Z,17.88
2018-07-01T04:17:15.555Z,17.91
2018-07-01T04:19:44.149Z,17.88
2018-07-01T04:22:12.675Z,17.91
2018-07-01T04:24:41.102Z,17.92
2018-07-01T04:27:13.974Z,17.92
2018-07-01T04:29:42.515Z,18.03
2018-07-01T04:32:11.166Z,18.02
2018-07-01T04:34:40.267Z,18.04
2018-07-01T04:37:08.787Z,18.04
2018-07-01T04:39:37.362Z,18.08
2018-07-01T04:42:05.864Z,18.12
2018-07-01T04:44:34.362Z,18.13
2018-07-01T04:47:02.994Z,18.16
2018-07-01T04:49:31.484Z,18.21
2018-07-01T04:51:59.982Z,18.31
2018-07-01T04:54:28.551Z,18.38
2018-07-01T04:56:57.039Z,18.45
2018-07-01T04:59:25.778Z,18.47
2018-07-01T05:01:54.388Z,18.48
2018-07-01T05:04:22.873Z,18.50
2018-07-01T05:06:51.327Z,18.48
2018-07-01T05:09:19.899Z,18.48
2018-07-01T05:11:48.412Z,18.49
2018-07-01T05:14:16.898Z,18.55
2018-07-01T05:16:45.417Z,18.55
2018-07-01T05:19:13.944Z,18.49
2018-07-01T05:21:42.430Z,18.56
2018-07-01T05:24:10.935Z,18.63
2018-07-01T05:26:39.412Z,18.67
2018-07-01T05:29:07.886Z,18.70
2018-07-01T05:31:36.374Z,18.79
2018-07-01T05:34:04.878Z,18.76
2018-07-01T05:36:33.416Z,18.75
2018-07-01T05:39:01.987Z,18.79
2018-07-01T05:41:30.531Z,18.82
2018-07-01T05:43:59.011Z,18.91
2018-07-01T05:46:27.784Z,18.94
2018-07-01T05:48:56.373Z,19.05
2018-07-01T05:51:24.855Z,19.20
2018-07-01T05:53:53.350Z,19.32
2018-07-01T05:56:21.947Z,19.38
2018-07-01T05:58:50.507Z,19.40
2018-07-01T06:01:18.956Z,19.47
2018-07-01T06:03:47.772Z,19.56
2018-07-01T06:06:16.219Z,19.67
2018-07-01T06:08:44.765Z,19.76
2018-07-01T06:11:13.252Z,19.85
2018-07-01T06:13:41.945Z,19.91
2018-07-01T06:16:10.466Z,20.00
2018-07-01T06:18:39.006Z,20.06
2018-07-01T06:21:07.567Z,20.12
2018-07-01T06:23:36.002Z,20.17
2018-07-01T06:26:04.824Z,20.29
2018-07-01T06:28:33.318Z,20.36
2018-07-01T06:31:02.030Z,20.41
2018-07-01T06:33:30.694Z,20.42
2018-07-01T06:35:59.252Z,20.51
2018-07-01T06:38:27.738Z,20.56
2018-07-01T06:40:56.190Z,20.66
2018-07-01T06:43:24.738Z,20.77
2018-07-01T06:45:53.272Z,20.85
2018-07-01T06:48:21.799Z,20.93
2018-07-01T06:50:50.370Z,21.01
2018-07-01T06:53:19.058Z,21.00
2018-07-01T06:55:47.598Z,20.98
2018-07-01T06:58:16.070Z,20.95
2018-07-01T07:00:44.619Z,21.06
2018-07-01T07:03:13.110Z,21.19
2018-07-01T07:05:41.631Z,21.30
2018-07-01T07:08:10.169Z,21.44
2018-07-01T07:10:38.750Z,21.42
2018-07-01T07:13:07.623Z,21.42
2018-07-01T07:15:36.167Z,21.45
2018-07-01T07:18:04.994Z,21.56
2018-07-01T07:20:33.732Z,21.60
2018-07-01T07:23:02.233Z,21.62
2018-07-01T07:25:30.782Z,21.66
2018-07-01T07:27:59.287Z,21.71
2018-07-01T07:30:27.823Z,21.86
2018-07-01T07:32:56.387Z,21.95
2018-07-01T07:35:24.923Z,22.05
2018-07-01T07:37:53.411Z,22.10
2018-07-01T07:40:22.145Z,22.21
2018-07-01T07:42:50.624Z,22.39
2018-07-01T07:45:19.272Z,22.50
2018-07-01T07:47:47.789Z,22.60
2018-07-01T07:50:16.277Z,22.79
2018-07-01T07:52:44.897Z,22.97
2018-07-01T07:55:13.463Z,23.01
2018-07-01T07:57:42.052Z,23.06
2018-07-01T08:00:10.974Z,23.21
2018-07-01T08:02:39.489Z,23.35
2018-07-01T08:05:08.120Z,23.50
2018-07-01T08:07:36.704Z,23.59
2018-07-01T08:10:05.376Z,23.76
2018-07-01T08:12:34.036Z,23.86
2018-07-01T08:15:02.632Z,23.94
2018-07-01T08:17:31.138Z,24.11
2018-07-01T08:19:59.688Z,24.25
2018-07-01T08:22:28.156Z,24.40
2018-07-01T08:24:56.655Z,24.56
2018-07-01T08:27:26.371Z,24.81
2018-07-01T08:29:54.900Z,24.97
2018-07-01T08:32:23.410Z,25.11
2018-07-01T08:34:52.001Z,25.20
2018-07-01T08:37:20.562Z,25.05
2018-07-01T08:39:49.177Z,25.01
2018-07-01T08:42:21.170Z,25.25
2018-07-01T08:44:50.446Z,25.22
2018-07-01T08:47:19.264Z,25.30
2018-07-01T08:49:47.810Z,25.50
2018-07-01T08:52:16.596Z,25.50
2018-07-01T08:54:45.328Z,25.68
2018-07-01T08:57:15.346Z,25.85
2018-07-01T08:59:44.777Z,25.82
2018-07-01T09:02:13.359Z,25.94
2018-07-01T09:04:42.575Z,26.04
2018-07-01T09:07:11.218Z,26.22
2018-07-01T09:09:39.898Z,26.41
2018-07-01T09:12:08.436Z,26.52
2018-07-01T09:14:37.016Z,26.61
2018-07-01T09:17:05.923Z,26.63
2018-07-01T09:19:34.514Z,26.88
2018-07-01T09:22:03.223Z,27.22
2018-07-01T09:24:31.775Z,27.41
2018-07-01T09:27:03.615Z,27.63
2018-07-01T09:29:32.125Z,27.65
2018-07-01T09:32:00.588Z,27.96
2018-07-01T09:34:29.727Z,27.81
2018-07-01T09:36:58.766Z,27.94
2018-07-01T09:39:27.363Z,28.29
2018-07-01T09:41:56.387Z,28.48
2018-07-01T09:44:25.067Z,28.77
2018-07-01T09:46:53.553Z,28.87
2018-07-01T09:49:22.046Z,29.34
2018-07-01T09:51:50.627Z,29.50
2018-07-01T09:54:19.227Z,29.69
2018-07-01T09:56:47.811Z,30.44
2018-07-01T09:59:16.374Z,30.91
2018-07-01T10:01:44.939Z,31.35
2018-07-01T10:04:13.473Z,31.60
2018-07-01T10:06:41.914Z,31.81
2018-07-01T10:09:11.130Z,32.52
2018-07-01T10:11:39.787Z,32.51
2018-07-01T10:14:09.136Z,32.96
2018-07-01T10:16:37.675Z,33.23
2018-07-01T10:19:06.366Z,32.98
2018-07-01T10:21:34.971Z,33.23
2018-07-01T10:24:03.544Z,33.67
2018-07-01T10:26:32.162Z,33.63
2018-07-01T10:29:10.380Z,34.10
2018-07-01T10:31:39.527Z,34.69
2018-07-01T10:34:09.086Z,34.45
2018-07-01T10:36:37.654Z,34.11
2018-07-01T10:39:09.312Z,34.51
2018-07-01T10:41:39.238Z,34.94
2018-07-01T10:44:07.767Z,35.05
2018-07-01T10:46:36.363Z,34.89
2018-07-01T10:49:05.401Z,35.79
2018-07-01T10:51:33.965Z,35.82
2018-07-01T10:54:02.648Z,36.18
2018-07-01T10:56:31.310Z,36.92
2018-07-01T10:58:59.982Z,36.97
2018-07-01T11:01:28.571Z,37.01
2018-07-01T11:03:57.158Z,36.83
2018-07-01T11:06:25.782Z,36.79
2018-07-01T11:08:54.255Z,37.16
2018-07-01T11:11:22.789Z,37.33
2018-07-01T11:13:51.700Z,37.72
2018-07-01T11:16:20.280Z,37.65
2018-07-01T11:18:48.946Z,37.97
2018-07-01T11:21:17.464Z,38.24
2018-07-01T11:23:46.012Z,38.29
2018-07-01T11:26:14.487Z,38.68
2018-07-01T11:28:42.964Z,38.90
2018-07-01T11:31:11.699Z,39.33
2018-07-01T11:33:40.282Z,38.84
2018-07-01T11:36:08.859Z,39.01
2018-07-01T11:38:37.414Z,39.51
2018-07-01T11:41:05.960Z,39.81
2018-07-01T11:43:34.608Z,39.15
2018-07-01T11:46:03.258Z,39.44
2018-07-01T11:48:31.903Z,39.52
2018-07-01T11:51:00.539Z,39.41
2018-07-01T11:53:29.204Z,39.47
2018-07-01T11:55:57.794Z,39.60
2018-07-01T11:58:26.394Z,39.20
2018-07-01T12:00:54.995Z,40.47
2018-07-01T12:03:23.448Z,40.24
2018-07-01T12:05:52.111Z,40.47
2018-07-01T12:08:20.633Z,40.69
2018-07-01T12:10:49.287Z,40.70
2018-07-01T12:13:17.905Z,41.45
2018-07-01T12:15:46.402Z,40.62
2018-07-01T12:18:14.983Z,40.61
2018-07-01T12:20:43.573Z,41.22
2018-07-01T12:23:12.230Z,41.88
2018-07-01T12:25:40.765Z,42.12
2018-07-01T12:28:09.328Z,41.97
2018-07-01T12:30:37.887Z,42.71
2018-07-01T12:33:06.464Z,42.48
2018-07-01T12:35:35.075Z,42.76
2018-07-01T12:38:03.833Z,42.69
2018-07-01T12:40:32.601Z,42.73
2018-07-01T12:43:01.315Z,44.10
2018-07-01T12:45:29.812Z,43.55
2018-07-01T12:47:58.386Z,44.15
2018-07-01T12:50:26.993Z,44.55
2018-07-01T12:52:55.768Z,44.52
2018-07-01T12:55:24.436Z,44.72
2018-07-01T12:57:53.036Z,43.52
2018-07-01T13:00:21.495Z,44.18
2018-07-01T13:02:50.096Z,43.79
2018-07-01T13:05:18.573Z,43.22
2018-07-01T13:07:47.107Z,43.28
2018-07-01T13:10:15.766Z,43.79
2018-07-01T13:12:44.316Z,44.56
2018-07-01T13:15:15.079Z,44.52
2018-07-01T13:17:43.672Z,45.83
2018-07-01T13:20:12.191Z,45.05
2018-07-01T13:22:40.713Z,44.80
2018-07-01T13:25:09.304Z,44.62
2018-07-01T13:27:37.867Z,45.19
2018-07-01T13:30:06.583Z,45.81
2018-07-01T13:32:35.663Z,44.99
2018-07-01T13:35:04.223Z,44.52
2018-07-01T13:37:32.712Z,46.16
2018-07-01T13:40:01.195Z,46.05
2018-07-01T13:42:29.684Z,46.88
2018-07-01T13:44:58.406Z,46.38
2018-07-01T13:47:26.975Z,46.02
2018-07-01T13:49:59.679Z,45.84
2018-07-01T13:52:28.286Z,45.94
2018-07-01T13:54:56.909Z,46.39
2018-07-01T13:57:25.497Z,45.62
2018-07-01T13:59:53.976Z,45.45
2018-07-01T14:02:22.552Z,43.76
2018-07-01T14:04:51.207Z,44.41
2018-07-01T14:07:21.640Z,45.00
2018-07-01T14:09:50.303Z,44.95
2018-07-01T14:12:18.824Z,44.99
2018-07-01T14:14:47.392Z,45.11
2018-07-01T14:17:15.920Z,46.37
2018-07-01T14:19:44.568Z,46.96
2018-07-01T14:22:13.077Z,46.64
2018-07-01T14:24:41.683Z,44.97
2018-07-01T14:27:10.252Z,45.38
2018-07-01T14:29:38.790Z,45.79
2018-07-01T14:32:07.483Z,45.91
2018-07-01T14:34:35.989Z,46.36
2018-07-01T14:37:04.855Z,46.82
2018-07-01T14:39:33.418Z,46.36
2018-07-01T14:42:02.053Z,46.25
2018-07-01T14:44:30.616Z,46.85
2018-07-01T14:46:59.181Z,47.44
2018-07-01T14:49:27.972Z,47.57
2018-07-01T14:51:56.469Z,46.06
2018-07-01T14:54:25.066Z,45.11
2018-07-01T14:56:53.558Z,47.54
2018-07-01T14:59:22.172Z,46.25
2018-07-01T15:01:50.695Z,46.27
2018-07-01T15:04:19.170Z,47.58
2018-07-01T15:06:47.633Z,47.91
2018-07-01T15:09:16.136Z,47.81
2018-07-01T15:11:44.587Z,47.53
2018-07-01T15:14:13.170Z,48.58
2018-07-01T15:16:41.666Z,48.55
2018-07-01T15:19:10.275Z,47.62
2018-07-01T15:21:38.805Z,47.41
2018-07-01T15:24:07.309Z,46.54
2018-07-01T15:26:35.815Z,45.04
2018-07-01T15:29:04.504Z,45.16
2018-07-01T15:31:32.982Z,45.39
2018-07-01T15:34:01.439Z,46.22
2018-07-01T15:36:30.263Z,45.82
2018-07-01T15:38:58.944Z,47.25
2018-07-01T15:41:27.499Z,47.31
2018-07-01T15:43:56.008Z,46.56
2018-07-01T15:46:24.702Z,45.94
2018-07-01T15:48:53.291Z,46.52
2018-07-01T15:51:21.847Z,45.32
2018-07-01T15:53:50.325Z,45.41
2018-07-01T15:56:18.879Z,45.72
2018-07-01T15:58:47.422Z,45.91
2018-07-01T16:01:15.967Z,45.39
2018-07-01T16:03:44.442Z,46.86
2018-07-01T16:06:13.031Z,45.32
2018-07-01T16:08:41.876Z,45.91
2018-07-01T16:11:10.415Z,45.41
2018-07-01T16:13:38.947Z,46.20
2018-07-01T16:16:07.506Z,46.27
2018-07-01T16:18:36.364Z,47.99
2018-07-01T16:21:04.916Z,46.39
2018-07-01T16:23:33.594Z,46.38
2018-07-01T16:26:08.341Z,45.33
2018-07-01T16:28:40.786Z,44.55
2018-07-01T16:31:09.756Z,46.26
2018-07-01T16:33:38.447Z,45.62
2018-07-01T16:36:07.095Z,47.27
2018-07-01T16:38:35.563Z,46.06
2018-07-01T16:41:04.530Z,46.21
2018-07-01T16:43:33.096Z,46.09
2018-07-01T16:46:01.794Z,45.77
2018-07-01T16:48:30.296Z,45.60
2018-07-01T16:50:59.039Z,44.93
2018-07-01T16:53:27.628Z,45.14
2018-07-01T16:55:58.834Z,46.85
2018-07-01T16:58:27.327Z,46.96
2018-07-01T17:00:55.883Z,45.77
2018-07-01T17:03:24.423Z,46.68
2018-07-01T17:05:52.989Z,46.44
2018-07-01T17:08:21.560Z,45.44
2018-07-01T17:10:50.294Z,45.49
2018-07-01T17:13:18.808Z,45.84
2018-07-01T17:15:47.296Z,43.68
2018-07-01T17:18:15.799Z,42.46
2018-07-01T17:20:44.456Z,42.07
2018-07-01T17:23:13.038Z,41.71
2018-07-01T17:25:46.907Z,43.59
2018-07-01T17:28:15.735Z,42.48
2018-07-01T17:30:44.275Z,43.34
2018-07-01T17:33:21.520Z,43.02
2018-07-01T17:35:50.005Z,43.70
2018-07-01T17:38:18.557Z,43.48
2018-07-01T17:40:47.047Z,43.07
2018-07-01T17:43:15.611Z,43.66
2018-07-01T17:45:44.235Z,43.26
2018-07-01T17:48:12.822Z,43.26
2018-07-01T17:50:41.700Z,42.92
2018-07-01T17:53:17.371Z,42.86
2018-07-01T17:55:45.815Z,42.65
2018-07-01T17:58:14.401Z,42.43
2018-07-01T18:00:42.993Z,41.87
2018-07-01T18:03:11.738Z,39.94
2018-07-01T18:05:40.319Z,39.74
2018-07-01T18:08:08.847Z,38.18
2018-07-01T18:10:37.340Z,36.13
2018-07-01T18:13:05.985Z,34.29
2018-07-01T18:15:34.577Z,33.44
2018-07-01T18:18:03.146Z,32.78
2018-07-01T18:20:31.720Z,32.33
2018-07-01T18:23:27.413Z,31.92
2018-07-01T18:25:29.470Z,31.68
2018-07-01T18:28:11.463Z,31.53
2018-07-01T18:30:26.766Z,31.16
2018-07-01T18:32:55.275Z,31.10
2018-07-01T18:35:23.843Z,30.89
2018-07-01T18:37:52.639Z,30.73
2018-07-01T18:40:21.220Z,30.55
2018-07-01T18:42:49.750Z,30.34
2018-07-01T18:45:18.302Z,30.26
2018-07-01T18:47:46.898Z,30.17
2018-07-01T18:50:15.393Z,29.93
2018-07-01T18:52:43.864Z,29.82
2018-07-01T18:55:12.555Z,29.69
2018-07-01T18:57:41.125Z,29.61
2018-07-01T19:00:09.758Z,29.47
2018-07-01T19:02:38.326Z,29.33
2018-07-01T19:05:06.862Z,29.16
2018-07-01T19:07:35.446Z,29.02
2018-07-01T19:10:04.045Z,28.90
2018-07-01T19:12:32.672Z,28.81
2018-07-01T19:15:01.112Z,28.68
2018-07-01T19:17:29.603Z,28.58
2018-07-01T19:19:58.050Z,28.47
2018-07-01T19:22:27.092Z,28.28
2018-07-01T19:24:55.543Z,28.11
2018-07-01T19:27:24.107Z,27.95
2018-07-01T19:29:52.617Z,27.85
2018-07-01T19:32:21.349Z,27.72
2018-07-01T19:34:49.880Z,27.58
2018-07-01T19:37:18.438Z,27.46
2018-07-01T19:39:46.970Z,27.42
2018-07-01T19:42:15.512Z,27.44
2018-07-01T19:44:44.172Z,27.34
2018-07-01T19:47:12.908Z,27.16
2018-07-01T19:49:41.391Z,27.10
2018-07-01T19:52:10.003Z,27.02
2018-07-01T19:54:38.457Z,26.91
2018-07-01T19:57:07.036Z,26.83
2018-07-01T19:59:35.575Z,26.66
2018-07-01T20:02:04.555Z,26.47
2018-07-01T20:04:33.112Z,26.36
2018-07-01T20:07:01.611Z,26.18
2018-07-01T20:09:30.076Z,26.13
2018-07-01T20:11:58.806Z,26.03
2018-07-01T20:14:27.582Z,25.95
2018-07-01T20:16:56.158Z,25.82
2018-07-01T20:19:24.784Z,25.65
2018-07-01T20:21:53.679Z,25.57
2018-07-01T20:24:22.267Z,25.50
2018-07-01T20:26:51.006Z,25.38
2018-07-01T20:29:19.593Z,25.47
2018-07-01T20:31:48.027Z,25.39
2018-07-01T20:34:16.569Z,25.39
2018-07-01T20:36:45.089Z,25.46
2018-07-01T20:39:14.332Z,25.36
2018-07-01T20:41:43.040Z,25.25
2018-07-01T20:44:11.773Z,25.12
2018-07-01T20:46:40.339Z,25.01
2018-07-01T20:49:08.882Z,24.90
2018-07-01T20:51:37.580Z,24.72
2018-07-01T20:54:06.406Z,24.54
2018-07-01T20:56:35.025Z,24.44
2018-07-01T20:59:03.594Z,24.32
2018-07-01T21:01:32.162Z,24.20
2018-07-01T21:04:00.638Z,24.09
2018-07-01T21:06:29.174Z,23.93
2018-07-01T21:08:57.813Z,23.78
2018-07-01T21:11:26.390Z,23.71
2018-07-01T21:13:54.947Z,23.62
2018-07-01T21:16:23.374Z,23.50
2018-07-01T21:18:51.851Z,23.44
2018-07-01T21:21:20.512Z,23.36
2018-07-01T21:23:49.041Z,23.30
2018-07-01T21:26:17.520Z,23.19
2018-07-01T21:28:46.066Z,23.12
2018-07-01T21:31:14.566Z,23.06
2018-07-01T21:33:43.154Z,23.07
2018-07-01T21:36:11.630Z,22.98
2018-07-01T21:38:40.210Z,23.01
2018-07-01T21:41:08.686Z,22.99
2018-07-01T21:43:37.175Z,22.96
2018-07-01T21:46:05.775Z,22.96
2018-07-01T21:48:34.274Z,22.87
2018-07-01T21:51:02.942Z,22.85
2018-07-01T21:53:31.395Z,22.89
2018-07-01T21:55:59.945Z,22.80
2018-07-01T21:58:28.474Z,22.83
2018-07-01T22:00:57.003Z,22.76
2018-07-01T22:03:25.626Z,22.73
2018-07-01T22:05:54.106Z,22.70
2018-07-01T22:08:22.569Z,22.66
2018-07-01T22:12:03.083Z,22.59
2018-07-01T22:14:37.479Z,22.49
2018-07-01T22:17:08.435Z,22.48
2018-07-01T22:19:37.303Z,22.61
2018-07-01T22:22:06.271Z,22.69
2018-07-01T22:24:36.001Z,22.63
2018-07-01T22:27:04.909Z,22.59
2018-07-01T22:29:33.418Z,22.63
2018-07-01T22:32:01.947Z,22.57
2018-07-01T22:34:30.475Z,22.54
2018-07-01T22:36:58.960Z,22.49
2018-07-01T22:39:28.816Z,22.51
2018-07-01T22:41:58.299Z,22.49
2018-07-01T22:44:27.142Z,22.44
2018-07-01T22:46:55.789Z,22.33
2018-07-01T22:49:24.347Z,22.40
2018-07-01T22:51:52.925Z,22.38
2018-07-01T22:54:21.548Z,22.31
2018-07-01T22:56:50.145Z,22.31
2018-07-01T22:59:18.641Z,22.21
2018-07-01T23:02:58.566Z,22.13
2018-07-01T23:05:27.218Z,22.06
2018-07-01T23:07:55.711Z,22.05
2018-07-01T23:10:25.523Z,22.07
2018-07-01T23:12:54.904Z,22.07
2018-07-01T23:15:23.466Z,22.02
2018-07-01T23:17:52.387Z,21.96
2018-07-01T23:20:20.946Z,21.93
2018-07-01T23:22:49.390Z,22.02
2018-07-01T23:25:17.891Z,21.96
2018-07-01T23:27:50.574Z,21.86
2018-07-01T23:30:19.062Z,21.81
2018-07-01T23:32:47.537Z,21.81
2018-07-01T23:35:16.061Z,21.71
2018-07-01T23:37:44.657Z,21.64
2018-07-01T23:40:13.333Z,21.62
2018-07-01T23:42:42.433Z,21.66
2018-07-01T23:45:13.382Z,21.65
2018-07-01T23:47:42.194Z,21.62
2018-07-01T23:50:10.733Z,21.60
2018-07-01T23:52:39.326Z,21.57
2018-07-01T23:55:08.247Z,21.46
2018-07-01T23:57:36.782Z,21.36
